Time;durP1;ratioP1;P1;durP2;ratioP2;P2;SDS_P1;SDS_P2;PMS_P1;PMS_P2;Temp;Humidity;BMP_temperature;BMP_pressure;BME280_temperature;BME280_humidity;BME280_pressure;Samples;Min_cycle;Max_cycle;Signal;HPM_P1;HPM_P2
2023/02/23 00:01:33;;;;;;;26.08;13.68;;;;;;;5.16;87.51;100891.47;4862611;29;20271;-79
2023/02/23 00:04:04;;;;;;;22.75;12.15;;;;;;;5.12;87.68;100879.41;4853523;29;20213;-79
2023/02/23 00:06:35;;;;;;;22.85;13.43;;;;;;;5.17;87.11;100877.91;4856516;29;20196;-79
2023/02/23 00:09:10;;;;;;;28.45;14.80;;;;;;;5.16;87.14;100880.75;4857883;29;20188;-80
2023/02/23 00:11:40;;;;;;;21.02;14.90;;;;;;;5.16;87.21;100870.00;4850595;29;20225;-80
2023/02/23 00:14:10;;;;;;;26.27;14.57;;;;;;;5.19;87.53;100870.50;4855178;29;20299;-80
2023/02/23 00:16:44;;;;;;;37.28;15.95;;;;;;;5.19;86.89;100875.03;4854384;29;20216;-79
2023/02/23 00:19:13;;;;;;;22.20;12.88;;;;;;;5.19;86.96;100872.34;4851976;29;20240;-80
2023/02/23 00:21:44;;;;;;;31.25;13.30;;;;;;;5.23;86.88;100876.34;4846154;29;20228;-79
2023/02/23 00:24:15;;;;;;;26.10;13.00;;;;;;;5.27;86.46;100872.34;4853200;29;20198;-81
2023/02/23 00:26:46;;;;;;;19.35;11.90;;;;;;;5.19;86.80;100873.19;4851358;29;20209;-80
2023/02/23 00:29:21;;;;;;;23.80;13.90;;;;;;;5.23;86.84;100873.69;4841908;29;20207;-80
2023/02/23 00:31:55;;;;;;;23.63;13.20;;;;;;;5.19;86.83;100869.66;4843152;29;20651;-80
2023/02/23 00:34:25;;;;;;;36.67;14.73;;;;;;;5.13;87.02;100871.16;4839041;29;20223;-79
2023/02/23 00:36:55;;;;;;;30.52;14.07;;;;;;;5.17;87.33;100869.84;4858189;29;20215;-81
2023/02/23 00:39:27;;;;;;;21.55;14.25;;;;;;;5.19;86.95;100875.88;4852491;29;20212;-79
2023/02/23 00:42:01;;;;;;;27.50;13.73;;;;;;;5.09;87.16;100875.19;4849037;29;20239;-80
2023/02/23 00:44:33;;;;;;;24.45;12.85;;;;;;;5.15;86.96;100862.97;4858749;29;20234;-80
2023/02/23 00:47:04;;;;;;;29.48;13.30;;;;;;;5.10;87.11;100862.63;4866189;29;20210;-80
2023/02/23 00:49:33;;;;;;;27.02;13.82;;;;;;;5.07;87.55;100855.75;4864361;29;20421;-80
2023/02/23 00:52:07;;;;;;;24.77;15.20;;;;;;;4.99;88.05;100858.41;4847964;29;20264;-81
2023/02/23 00:54:36;;;;;;;24.67;14.07;;;;;;;5.00;87.51;100859.25;4851462;29;20207;-80
2023/02/23 00:57:08;;;;;;;34.78;15.15;;;;;;;5.00;87.98;100853.91;4865239;29;20202;-80
2023/02/23 00:59:39;;;;;;;28.73;14.40;;;;;;;5.04;87.58;100850.72;4856190;29;20220;-80
2023/02/23 01:02:08;;;;;;;28.02;14.93;;;;;;;4.94;87.84;100857.28;4857561;29;20212;-80
2023/02/23 01:04:37;;;;;;;24.42;13.60;;;;;;;4.98;87.87;100858.59;4854450;29;20215;-79
2023/02/23 01:07:07;;;;;;;32.20;15.38;;;;;;;5.02;87.59;100860.78;4859727;29;20670;-80
2023/02/23 01:09:36;;;;;;;36.60;14.40;;;;;;;4.95;88.71;100867.81;4838904;29;20215;-80
2023/02/23 01:12:06;;;;;;;26.02;14.55;;;;;;;4.88;88.09;100861.44;4853253;29;20308;-80
2023/02/23 01:14:38;;;;;;;24.08;14.45;;;;;;;4.89;88.12;100855.06;4850780;29;20192;-79
2023/02/23 01:17:07;;;;;;;24.52;15.13;;;;;;;4.93;88.49;100855.59;4851117;29;20206;-78
2023/02/23 01:19:37;;;;;;;24.88;16.00;;;;;;;4.94;88.17;100854.59;4855971;29;20284;-80
2023/02/23 01:22:06;;;;;;;22.63;14.05;;;;;;;4.92;87.91;100861.94;4840433;29;20234;-78
2023/02/23 01:24:37;;;;;;;26.10;15.73;;;;;;;4.86;88.27;100857.25;4855324;29;20208;-79
2023/02/23 01:27:06;;;;;;;26.35;13.85;;;;;;;4.92;87.81;100848.53;4839796;29;20204;-79
2023/02/23 01:29:36;;;;;;;26.98;15.57;;;;;;;4.89;87.89;100846.19;4864891;29;20192;-78
2023/02/23 01:32:06;;;;;;;25.35;15.80;;;;;;;4.85;88.37;100844.84;4872896;29;20239;-80
2023/02/23 01:34:35;;;;;;;29.15;12.63;;;;;;;4.79;88.07;100836.44;4863356;29;20196;-80
2023/02/23 01:37:05;;;;;;;30.42;14.20;;;;;;;4.85;88.10;100842.16;4860336;29;20699;-80
2023/02/23 01:39:34;;;;;;;27.05;15.25;;;;;;;4.79;88.09;100841.81;4835240;29;20226;-79
2023/02/23 01:42:04;;;;;;;30.20;15.10;;;;;;;4.75;88.20;100843.16;4835375;29;20288;-79
2023/02/23 01:45:17;;;;;;;23.13;15.02;;;;;;;4.70;88.56;100834.75;4859418;29;20200;-78
2023/02/23 01:47:48;;;;;;;28.15;13.65;;;;;;;4.66;89.09;100835.25;4835247;29;20197;-80
2023/02/23 01:50:18;;;;;;;29.23;14.98;;;;;;;4.70;88.84;100832.09;4865901;29;20213;-80
2023/02/23 01:52:50;;;;;;;19.30;14.98;;;;;;;4.69;88.91;100826.91;4839214;29;20224;-79
2023/02/23 01:55:23;;;;;;;25.15;14.70;;;;;;;4.65;89.04;100822.88;4855497;29;20195;-78
2023/02/23 01:57:58;;;;;;;28.05;16.20;;;;;;;4.63;88.85;100820.38;4853371;29;20209;-79
2023/02/23 02:00:35;;;;;;;23.77;14.90;;;;;;;4.60;88.98;100830.59;4853357;29;20204;-79
2023/02/23 02:03:14;;;;;;;23.25;14.90;;;;;;;4.58;89.09;100817.34;4843392;29;20238;-80
2023/02/23 02:05:45;;;;;;;34.42;16.67;;;;;;;4.55;89.18;100824.88;4855945;29;20212;-79
2023/02/23 02:08:17;;;;;;;26.98;15.95;;;;;;;4.53;89.39;100819.69;4855943;29;20192;-79
2023/02/23 02:10:54;;;;;;;24.63;13.30;;;;;;;4.56;89.19;100813.97;4840581;29;20234;-80
2023/02/23 02:13:29;;;;;;;32.15;14.30;;;;;;;4.43;89.42;100818.16;4850740;29;20203;-80
2023/02/23 02:16:30;;;;;;;26.35;13.27;;;;;;;4.52;89.64;100811.78;4861842;29;20206;-79
2023/02/23 02:19:37;;;;;;;36.55;16.38;;;;;;;4.45;89.56;100808.13;4858822;29;20214;-83
2023/02/23 02:22:37;;;;;;;29.48;15.45;;;;;;;4.52;89.51;100798.41;4849923;29;20229;-83
2023/02/23 02:25:47;;;;;;;27.25;14.85;;;;;;;4.42;89.64;100793.19;4877013;29;20219;-82
2023/02/23 02:28:56;;;;;;;31.00;16.33;;;;;;;4.36;89.97;100792.00;4863601;29;20220;-81
2023/02/23 02:32:53;;;;;;;30.40;14.60;;;;;;;4.32;90.20;100796.00;4842731;29;20295;-82
2023/02/23 02:36:00;;;;;;;35.65;15.82;;;;;;;4.35;90.24;100800.22;4794119;29;20222;-81
2023/02/23 02:38:49;;;;;;;29.45;14.52;;;;;;;4.28;90.64;100804.53;4791801;29;20213;-82
2023/02/23 02:41:34;;;;;;;25.10;17.20;;;;;;;4.28;90.60;100796.50;4862165;29;20251;-82
2023/02/23 02:57:20;;;;;;;35.65;15.10;;;;;;;4.22;91.71;100795.31;4801327;30;20305;-82
2023/02/23 04:18:56;;;;;;;34.47;15.00;;;;;;;3.81;93.64;100754.22;4856242;29;20200;-82
2023/02/23 04:21:42;;;;;;;32.33;16.80;;;;;;;3.87;93.96;100747.38;4865466;29;20755;-81
2023/02/23 04:24:38;;;;;;;29.30;16.23;;;;;;;3.81;93.50;100758.72;4853127;29;20200;-81
2023/02/23 04:27:20;;;;;;;25.80;15.15;;;;;;;3.79;94.02;100755.34;4840929;29;20229;-81
2023/02/23 04:30:03;;;;;;;40.05;18.73;;;;;;;3.89;93.82;100756.91;4859980;29;20198;-82
2023/02/23 04:32:52;;;;;;;28.50;15.00;;;;;;;3.81;93.35;100748.00;4855966;29;20655;-81
2023/02/23 04:35:56;;;;;;;38.05;17.13;;;;;;;3.71;94.02;100753.50;4822876;29;20384;-81
2023/02/23 04:38:42;;;;;;;25.10;15.77;;;;;;;3.67;94.51;100741.44;4851831;29;20240;-82
2023/02/23 04:41:47;;;;;;;35.08;16.67;;;;;;;3.72;94.29;100743.63;4849240;29;20322;-82
2023/02/23 04:45:15;;;;;;;30.65;15.30;;;;;;;3.60;94.67;100740.41;4799837;29;20410;-80
2023/02/23 04:47:56;;;;;;;29.45;16.52;;;;;;;3.65;94.88;100738.09;4829517;29;20211;-82
2023/02/23 04:50:46;;;;;;;27.00;14.85;;;;;;;3.71;94.64;100734.78;4856328;29;20248;-81
2023/02/23 06:43:50;;;;;;;28.10;14.40;;;;;;;3.29;95.01;100763.34;4739714;30;20212;-81
2023/02/23 06:46:20;;;;;;;21.83;14.35;;;;;;;3.29;95.09;100768.69;4754962;30;20229;-81
2023/02/23 06:48:52;;;;;;;32.20;16.60;;;;;;;3.33;95.33;100759.34;4825415;29;20208;-81
2023/02/23 06:51:25;;;;;;;34.92;14.98;;;;;;;3.35;95.73;100768.03;4867704;29;20236;-81
2023/02/23 06:53:54;;;;;;;24.05;15.23;;;;;;;3.45;95.14;100768.75;4835608;29;20200;-80
2023/02/23 06:56:23;;;;;;;29.02;18.63;;;;;;;3.63;94.44;100772.19;4850633;29;20275;-82
2023/02/23 06:58:53;;;;;;;26.63;16.42;;;;;;;3.62;93.70;100770.53;4852338;29;20243;-81
2023/02/23 07:01:22;;;;;;;28.90;13.70;;;;;;;3.75;93.04;100765.56;4851210;29;20231;-82
2023/02/23 07:03:57;;;;;;;30.83;16.55;;;;;;;3.78;92.67;100765.22;4864761;29;20582;-82
2023/02/23 07:06:37;;;;;;;28.83;16.25;;;;;;;3.94;92.58;100762.63;4854943;29;20242;-82
2023/02/23 07:09:09;;;;;;;35.92;17.23;;;;;;;4.00;91.96;100760.28;4857137;29;20292;-82
2023/02/23 07:11:47;;;;;;;27.45;16.75;;;;;;;4.15;91.42;100766.69;4869888;29;20210;-81
2023/02/23 08:15:55;;;;;;;34.00;18.03;;;;;;;5.76;83.73;100754.97;5117354;27;1627293;-71
2023/02/23 08:18:26;;;;;;;26.67;16.83;;;;;;;5.83;82.76;100747.91;5139839;27;20194;-73
2023/02/23 08:20:59;;;;;;;29.02;16.15;;;;;;;5.84;82.72;100749.56;5145635;27;20190;-71
2023/02/23 08:23:31;;;;;;;32.22;17.63;;;;;;;5.99;82.58;100747.00;5143333;27;20237;-71
2023/02/23 08:26:02;;;;;;;28.27;16.50;;;;;;;6.05;82.42;100743.63;5141895;27;20196;-73
2023/02/23 08:28:33;;;;;;;38.38;19.08;;;;;;;5.94;82.28;100744.03;5133790;27;20442;-72
2023/02/23 08:31:12;;;;;;;27.48;16.52;;;;;;;5.93;82.48;100743.19;5125219;27;20714;-73
2023/02/23 08:33:41;;;;;;;25.83;17.45;;;;;;;6.11;81.86;100742.91;5132178;27;20282;-72
2023/02/23 08:36:11;;;;;;;36.57;17.57;;;;;;;6.05;81.76;100749.00;5129555;27;20194;-71
2023/02/23 08:38:39;;;;;;;33.42;18.00;;;;;;;6.28;81.32;100743.66;5128626;27;20443;-71
2023/02/23 08:41:09;;;;;;;28.67;17.25;;;;;;;6.35;80.70;100745.44;5130868;27;20193;-72
2023/02/23 08:43:38;;;;;;;31.20;17.80;;;;;;;6.38;80.46;100749.63;5139569;27;20201;-72
2023/02/23 08:46:08;;;;;;;36.70;18.15;;;;;;;6.50;79.74;100746.34;5124131;27;20204;-71
2023/02/23 08:48:39;;;;;;;31.92;17.33;;;;;;;6.49;80.20;100739.28;5120374;28;20203;-71
2023/02/23 08:51:09;;;;;;;24.53;15.40;;;;;;;6.57;80.00;100743.78;5132485;27;20200;-72
2023/02/23 08:53:38;;;;;;;24.95;16.70;;;;;;;6.71;79.68;100755.59;5119345;28;20460;-72
2023/02/23 08:56:08;;;;;;;44.65;18.20;;;;;;;6.90;78.97;100747.03;5130163;27;20186;-71
2023/02/23 08:58:37;;;;;;;25.35;17.45;;;;;;;6.92;78.73;100753.06;5144840;27;20214;-72
2023/02/23 09:01:06;;;;;;;23.30;15.55;;;;;;;6.96;78.82;100749.00;5138506;27;20226;-72
2023/02/23 09:03:37;;;;;;;25.02;16.25;;;;;;;6.92;77.96;100755.75;5125730;27;20294;-71
2023/02/23 09:06:12;;;;;;;33.03;19.50;;;;;;;6.82;79.15;100760.56;5126381;27;20607;-72
2023/02/23 09:08:41;;;;;;;30.25;18.85;;;;;;;6.85;79.29;100757.50;5139503;27;20211;-72
2023/02/23 09:11:10;;;;;;;32.90;16.48;;;;;;;6.96;78.76;100755.22;5136255;27;20623;-72
2023/02/23 09:13:39;;;;;;;22.67;16.58;;;;;;;7.06;78.85;100754.13;5140845;27;20274;-72
2023/02/23 09:16:09;;;;;;;33.28;18.42;;;;;;;7.10;78.71;100750.88;5128371;27;20773;-71
2023/02/23 09:18:40;;;;;;;26.70;18.15;;;;;;;7.24;78.38;100750.06;5122081;28;20200;-72
2023/02/23 09:21:17;;;;;;;25.17;15.63;;;;;;;7.26;78.76;100755.28;5131476;27;20186;-71
2023/02/23 09:23:50;;;;;;;27.38;15.15;;;;;;;7.30;78.60;100752.03;5127747;27;20263;-71
2023/02/23 09:26:20;;;;;;;31.35;16.98;;;;;;;7.20;78.99;100739.84;5124159;27;20203;-71
2023/02/23 09:28:50;;;;;;;26.38;16.33;;;;;;;7.36;79.09;100751.25;5126731;27;20196;-71
2023/02/23 09:31:22;;;;;;;28.23;15.88;;;;;;;7.49;78.16;100749.81;5098439;28;20201;-70
2023/02/23 09:33:53;;;;;;;25.58;17.42;;;;;;;7.50;78.27;100752.31;5099569;28;20193;-70
2023/02/23 09:36:25;;;;;;;27.98;19.27;;;;;;;7.54;78.03;100747.38;5116370;27;20714;-72
2023/02/23 09:38:56;;;;;;;24.27;15.73;;;;;;;7.83;77.14;100748.19;5104171;28;20229;-72
2023/02/23 09:41:47;;;;;;;27.25;15.40;;;;;;;8.12;76.36;100752.69;5106055;27;20204;-72
2023/02/23 09:44:26;;;;;;;33.78;17.52;;;;;;;7.94;75.71;100754.13;5107967;27;20249;-71
2023/02/23 09:47:09;;;;;;;28.88;16.08;;;;;;;7.84;76.92;100754.44;5104415;27;20214;-72
2023/02/23 09:49:45;;;;;;;23.38;15.98;;;;;;;7.99;76.46;100744.44;5124020;27;20254;-72
2023/02/23 09:52:19;;;;;;;26.52;17.20;;;;;;;8.16;75.83;100747.75;5117697;27;20231;-72
2023/02/23 09:54:48;;;;;;;37.15;18.25;;;;;;;8.17;75.50;100747.56;5127817;27;20194;-73
2023/02/23 09:57:24;;;;;;;27.23;17.05;;;;;;;8.44;75.31;100747.88;5116587;27;20220;-72
2023/02/23 09:59:53;;;;;;;31.42;16.80;;;;;;;8.74;73.31;100752.13;5106776;28;20235;-73
2023/02/23 10:02:28;;;;;;;22.98;16.92;;;;;;;8.95;72.70;100748.59;5113335;27;20283;-72
2023/02/23 10:05:02;;;;;;;39.00;19.42;;;;;;;8.92;73.17;100752.50;5100839;28;20736;-73
2023/02/23 10:07:42;;;;;;;32.47;17.55;;;;;;;8.90;72.32;100751.88;5114473;27;20256;-72
2023/02/23 10:10:25;;;;;;;35.58;19.27;;;;;;;9.09;72.62;100745.78;5110553;27;20215;-71
2023/02/23 10:13:03;;;;;;;29.15;19.25;;;;;;;9.31;72.34;100740.31;5106238;27;20200;-72
2023/02/23 10:15:38;;;;;;;37.95;21.17;;;;;;;9.15;72.09;100747.69;5113433;27;20219;-72
2023/02/23 10:18:17;;;;;;;29.33;17.83;;;;;;;9.38;72.19;100749.31;5104262;28;20213;-73
2023/02/23 10:20:56;;;;;;;35.13;19.53;;;;;;;9.35;71.56;100744.28;5104327;27;20195;-70
2023/02/23 10:23:29;;;;;;;33.45;19.73;;;;;;;9.69;70.76;100738.88;5110321;27;20483;-72
2023/02/23 10:26:02;;;;;;;28.53;19.93;;;;;;;9.73;70.25;100740.16;5102947;28;20182;-72
2023/02/23 10:28:36;;;;;;;26.33;18.73;;;;;;;9.81;70.63;100739.16;5146680;27;20408;-72
2023/02/23 10:31:20;;;;;;;27.70;19.33;;;;;;;9.97;70.57;100744.22;5141734;27;20194;-74
2023/02/23 10:33:52;;;;;;;32.47;21.23;;;;;;;10.14;70.46;100747.41;5118117;28;20443;-74
2023/02/23 10:36:34;;;;;;;29.83;17.77;;;;;;;10.31;69.46;100743.34;5113823;27;20825;-72
2023/02/23 10:39:06;;;;;;;31.77;20.07;;;;;;;10.66;68.66;100742.13;5114568;27;20436;-73
2023/02/23 10:41:36;;;;;;;33.70;21.20;;;;;;;10.87;68.27;100739.25;5103019;27;20436;-72
2023/02/23 10:44:07;;;;;;;23.83;17.77;;;;;;;10.74;68.57;100739.25;5119440;27;20421;-72
2023/02/23 10:46:47;;;;;;;34.20;18.87;;;;;;;10.78;69.94;100742.38;5115226;27;20473;-71
2023/02/23 10:49:21;;;;;;;31.10;20.77;;;;;;;10.58;70.27;100747.75;5126789;27;20439;-70
2023/02/23 10:51:56;;;;;;;32.00;19.00;;;;;;;10.85;70.32;100735.91;5105040;28;20443;-71
2023/02/23 10:54:37;;;;;;;29.50;18.60;;;;;;;10.92;69.37;100735.09;5096094;28;20451;-72
2023/02/23 10:57:08;;;;;;;30.60;18.60;;;;;;;11.02;69.10;100741.75;5115667;27;20706;-71
2023/02/23 10:59:37;;;;;;;32.38;19.30;;;;;;;10.92;69.68;100738.63;5116692;27;20446;-72
2023/02/23 11:02:30;;;;;;;28.53;18.73;;;;;;;11.22;68.70;100728.19;5112348;28;20288;-70
2023/02/23 11:05:00;;;;;;;30.37;19.10;;;;;;;11.25;68.10;100725.91;5101266;27;20943;-72
2023/02/23 11:07:33;;;;;;;22.13;17.20;;;;;;;11.38;67.53;100733.16;5110932;27;20463;-71
2023/02/23 11:10:25;;;;;;;27.77;18.80;;;;;;;11.55;67.59;100728.97;5109709;28;20561;-72
2023/02/23 11:12:55;;;;;;;30.60;17.33;;;;;;;11.65;66.59;100721.22;5114660;27;20464;-72
2023/02/23 11:15:29;;;;;;;38.13;19.93;;;;;;;11.99;66.03;100720.09;5113159;27;20444;-71
2023/02/23 11:18:22;;;;;;;32.30;19.13;;;;;;;11.52;67.18;100723.16;5121608;27;20502;-72
2023/02/23 11:20:53;;;;;;;27.67;17.83;;;;;;;11.56;67.22;100717.09;5104298;27;20451;-72
2023/02/23 11:23:27;;;;;;;26.47;16.47;;;;;;;11.51;68.00;100725.03;5117311;27;20415;-72
2023/02/23 11:26:00;;;;;;;30.27;17.87;;;;;;;11.81;67.11;100717.25;5114958;27;20475;-71
2023/02/23 11:28:33;;;;;;;25.33;18.07;;;;;;;11.77;67.69;100711.41;5097844;28;20446;-72
2023/02/23 11:31:09;;;;;;;29.47;19.70;;;;;;;12.04;66.85;100711.31;5100880;28;20805;-72
2023/02/23 11:33:40;;;;;;;31.47;19.40;;;;;;;11.82;67.81;100707.22;5125063;27;20828;-72
2023/02/23 11:36:25;;;;;;;38.57;20.93;;;;;;;11.94;68.06;100708.22;5115670;27;20967;-71
2023/02/23 11:39:05;;;;;;;27.58;18.88;;;;;;;11.69;68.95;100708.91;5119746;27;20499;-71
2023/02/23 11:41:36;;;;;;;27.43;18.87;;;;;;;11.81;69.40;100706.41;5108479;28;20294;-73
2023/02/23 11:44:06;;;;;;;32.37;19.60;;;;;;;12.22;67.94;100697.84;5098539;28;20534;-72
2023/02/23 11:46:38;;;;;;;29.47;19.40;;;;;;;12.41;67.19;100688.75;5110382;27;20566;-71
2023/02/23 11:49:14;;;;;;;29.60;18.47;;;;;;;12.17;66.93;100694.94;5096086;27;20528;-70
2023/02/23 11:51:49;;;;;;;30.63;19.13;;;;;;;12.13;67.57;100689.13;5121883;27;20423;-71
2023/02/23 11:54:23;;;;;;;32.67;18.83;;;;;;;12.43;66.13;100683.94;5108548;27;20895;-71
2023/02/23 11:56:54;;;;;;;25.67;17.97;;;;;;;12.38;66.30;100678.34;5115644;27;20770;-72
2023/02/23 11:59:30;;;;;;;30.48;19.23;;;;;;;12.77;65.53;100684.53;5106674;27;20465;-71
2023/02/23 12:02:18;;;;;;;29.17;19.37;;;;;;;12.85;64.39;100676.09;5117374;27;20428;-71
2023/02/23 12:04:47;;;;;;;37.67;21.47;;;;;;;12.93;64.12;100673.91;5106093;28;20517;-73
2023/02/23 12:07:41;;;;;;;33.43;20.27;;;;;;;12.90;63.68;100676.25;5112138;28;20830;-71
2023/02/23 12:10:22;;;;;;;31.55;19.85;;;;;;;12.70;64.13;100671.00;5114519;28;20881;-74
2023/02/23 12:13:03;;;;;;;22.00;16.23;;;;;;;12.90;64.36;100679.81;5109471;28;20200;-72
2023/02/23 12:15:41;;;;;;;34.53;20.57;;;;;;;12.94;64.63;100672.03;5112951;28;20867;-74
2023/02/23 12:18:19;;;;;;;32.73;20.13;;;;;;;13.02;64.12;100674.47;5119453;28;20440;-73
2023/02/23 12:20:53;;;;;;;36.97;19.25;;;;;;;13.22;63.08;100680.56;5100221;28;20444;-73
2023/02/23 12:23:26;;;;;;;31.30;19.87;;;;;;;12.67;64.88;100667.91;5120383;28;20243;-72
2023/02/23 12:26:01;;;;;;;34.00;21.87;;;;;;;12.80;64.79;100662.34;5121999;28;20440;-72
2023/02/23 12:28:36;;;;;;;27.87;19.83;;;;;;;13.15;64.08;100663.50;5122631;28;20486;-72
2023/02/23 12:31:19;;;;;;;30.83;20.37;;;;;;;13.31;63.60;100656.66;5121628;28;20464;-72
2023/02/23 12:33:53;;;;;;;29.40;20.27;;;;;;;13.22;63.42;100664.25;5121570;28;20426;-73
2023/02/23 12:36:30;;;;;;;27.83;18.60;;;;;;;13.24;63.30;100654.00;5118326;28;20548;-73
2023/02/23 12:39:06;;;;;;;27.27;19.50;;;;;;;13.15;63.73;100658.09;5121096;28;20408;-73
2023/02/23 12:41:40;;;;;;;31.70;18.90;;;;;;;13.15;64.11;100660.81;5118489;28;20433;-71
2023/02/23 12:44:22;;;;;;;27.98;21.25;;;;;;;12.92;64.63;100655.16;5102522;28;20477;-72
2023/02/23 12:46:54;;;;;;;28.70;19.50;;;;;;;12.95;65.63;100651.97;5103256;28;20241;-72
2023/02/23 12:49:32;;;;;;;29.13;18.50;;;;;;;13.11;65.23;100650.56;5113483;28;20469;-71
2023/02/23 12:52:08;;;;;;;33.45;18.83;;;;;;;13.30;65.16;100653.13;5113792;28;20467;-73
2023/02/23 12:54:37;;;;;;;31.65;19.05;;;;;;;13.57;64.54;100648.19;5108746;28;20636;-72
2023/02/23 12:57:18;;;;;;;32.67;18.93;;;;;;;13.64;64.35;100653.56;5117682;28;20226;-73
2023/02/23 13:00:22;;;;;;;30.23;19.90;;;;;;;13.06;65.77;100645.81;5105386;27;20517;-71
2023/02/23 13:03:07;;;;;;;27.97;20.37;;;;;;;13.25;66.37;100644.81;5114586;27;20416;-74
2023/02/23 13:05:40;;;;;;;29.98;20.35;;;;;;;13.39;65.52;100638.16;5116703;27;20453;-71
2023/02/23 13:08:24;;;;;;;25.70;18.83;;;;;;;13.49;65.71;100633.03;5124212;27;20222;-73
2023/02/23 13:11:03;;;;;;;35.13;20.10;;;;;;;13.49;65.92;100635.75;5119328;27;20502;-72
2023/02/23 13:13:40;;;;;;;29.80;20.90;;;;;;;13.15;66.33;100641.78;5129019;27;20796;-71
2023/02/23 13:16:18;;;;;;;32.93;21.17;;;;;;;12.83;68.00;100629.34;5101764;28;20416;-72
2023/02/23 13:18:55;;;;;;;35.63;20.87;;;;;;;13.01;67.52;100632.91;5112821;27;20493;-73
2023/02/23 13:21:30;;;;;;;30.47;18.53;;;;;;;12.92;68.21;100626.09;5112016;28;20503;-72
2023/02/23 13:24:06;;;;;;;35.60;19.67;;;;;;;12.92;68.05;100626.09;5124393;27;20422;-72
2023/02/23 13:26:43;;;;;;;30.07;20.13;;;;;;;13.01;68.01;100623.91;5102367;27;21021;-72
2023/02/23 13:29:26;;;;;;;35.93;20.50;;;;;;;12.98;68.53;100624.34;5115868;27;20420;-72
2023/02/23 13:31:56;;;;;;;32.77;21.40;;;;;;;13.03;67.23;100629.94;5127574;27;20426;-72
2023/02/23 13:34:27;;;;;;;34.00;22.20;;;;;;;12.88;68.66;100626.75;5132486;28;20403;-72
2023/02/23 13:36:59;;;;;;;36.43;20.70;;;;;;;12.77;69.19;100624.78;5129393;27;20453;-71
2023/02/23 13:39:59;;;;;;;26.08;19.67;;;;;;;12.47;70.97;100638.19;5111959;27;20453;-71
2023/02/23 13:42:43;;;;;;;36.90;20.40;;;;;;;12.29;71.37;100638.13;5033204;28;20603;-71
2023/02/23 13:45:40;;;;;;;34.00;20.13;;;;;;;12.27;71.89;100632.91;5047959;27;20931;-72
2023/02/23 13:48:20;;;;;;;31.10;21.60;;;;;;;12.20;72.14;100634.81;5109106;28;20464;-71
2023/02/23 13:50:58;;;;;;;28.33;22.27;;;;;;;11.96;73.23;100643.72;5103088;27;20442;-72
2023/02/23 13:53:43;;;;;;;36.50;21.83;;;;;;;11.87;74.02;100639.63;5109495;27;20859;-72
2023/02/23 13:56:17;;;;;;;33.20;20.30;;;;;;;11.58;75.28;100640.97;5125913;27;20434;-72
2023/02/23 13:58:51;;;;;;;28.10;20.60;;;;;;;11.74;74.76;100641.34;5119349;27;20417;-72
2023/02/23 14:01:27;;;;;;;28.13;20.60;;;;;;;11.54;75.38;100643.28;5116492;27;20447;-72
2023/02/23 14:03:59;;;;;;;27.50;19.97;;;;;;;11.59;75.84;100634.50;5125244;27;20472;-72
2023/02/23 14:06:31;;;;;;;35.77;23.80;;;;;;;11.69;75.85;100638.44;5115420;27;20475;-73
2023/02/23 14:09:07;;;;;;;40.07;22.07;;;;;;;11.75;75.78;100642.19;5111926;27;20540;-71
2023/02/23 14:11:44;;;;;;;34.13;21.80;;;;;;;11.76;75.29;100643.88;5109436;27;20484;-72
2023/02/23 14:14:36;;;;;;;29.30;20.50;;;;;;;11.53;75.80;100647.03;5107078;27;20467;-70
2023/02/23 14:17:41;;;;;;;37.80;25.13;;;;;;;11.38;77.13;100645.63;5107994;27;20867;-72
2023/02/23 14:20:35;;;;;;;31.93;22.93;;;;;;;11.13;78.46;100642.81;5112585;27;20956;-73
2023/02/23 14:23:29;;;;;;;41.47;24.23;;;;;;;11.26;78.59;100659.00;5102718;27;20476;-72
2023/02/23 14:26:16;;;;;;;40.33;24.30;;;;;;;11.02;79.80;100651.56;5129296;27;20403;-73
2023/02/23 14:29:27;;;;;;;32.43;23.23;;;;;;;11.02;80.10;100646.16;5113803;27;20447;-72
2023/02/23 14:32:02;;;;;;;34.83;23.67;;;;;;;10.90;80.88;100648.66;5102756;28;20763;-71
2023/02/23 14:34:52;;;;;;;34.17;24.47;;;;;;;10.86;81.23;100648.25;5110317;27;20433;-72
2023/02/23 14:37:31;;;;;;;37.67;23.23;;;;;;;10.82;81.79;100648.88;5096686;28;20572;-72
2023/02/23 14:40:14;;;;;;;38.63;25.70;;;;;;;10.67;82.91;100654.50;5109044;27;20442;-72
2023/02/23 14:42:55;;;;;;;41.43;23.93;;;;;;;10.73;83.17;100647.44;5114086;28;20505;-71
2023/02/23 14:45:27;;;;;;;35.50;24.97;;;;;;;10.73;83.11;100642.84;5127304;27;20401;-72
2023/02/23 14:48:05;;;;;;;42.30;26.60;;;;;;;10.79;82.76;100644.72;5126947;27;20512;-71
2023/02/23 14:50:45;;;;;;;41.73;26.70;;;;;;;10.94;82.72;100643.66;5114868;27;20450;-71
2023/02/23 14:53:22;;;;;;;36.00;25.77;;;;;;;11.09;82.05;100646.94;5117526;27;20452;-71
2023/02/23 14:55:56;;;;;;;44.93;26.30;;;;;;;11.09;82.14;100641.53;5115763;27;20431;-70
2023/02/23 14:58:32;;;;;;;39.53;28.47;;;;;;;10.92;82.39;100645.75;5127051;27;20835;-71
2023/02/23 15:01:10;;;;;;;55.40;28.43;;;;;;;11.04;82.69;100644.03;5101527;27;20442;-73
2023/02/23 15:03:42;;;;;;;44.85;28.35;;;;;;;10.97;82.93;100643.25;5101499;28;20426;-72
2023/02/23 15:06:22;;;;;;;47.10;30.27;;;;;;;10.67;84.20;100654.50;5120808;27;20213;-71
2023/02/23 15:08:55;;;;;;;39.70;25.97;;;;;;;10.69;84.67;100648.91;5118667;27;20447;-73
2023/02/23 15:11:26;;;;;;;39.87;26.33;;;;;;;10.56;85.39;100648.88;5104222;27;20498;-73
2023/02/23 15:13:58;;;;;;;43.43;28.10;;;;;;;10.53;85.68;100644.72;5102196;28;20419;-72
2023/02/23 15:16:35;;;;;;;43.90;27.10;;;;;;;10.54;85.76;100638.28;5095159;28;20446;-72
2023/02/23 15:19:06;;;;;;;45.37;26.57;;;;;;;10.62;85.40;100629.09;5103502;27;20633;-73
2023/02/23 15:21:42;;;;;;;45.83;27.30;;;;;;;10.51;85.67;100644.09;5109366;27;20450;-71
2023/02/23 15:24:15;;;;;;;49.28;26.48;;;;;;;10.55;85.76;100637.25;5105523;28;20422;-72
2023/02/23 15:26:46;;;;;;;41.90;26.63;;;;;;;10.53;85.88;100633.91;5104993;27;20220;-72
2023/02/23 15:29:18;;;;;;;52.63;26.93;;;;;;;10.53;85.69;100641.19;5117059;27;20417;-72
2023/02/23 15:31:57;;;;;;;37.53;24.80;;;;;;;10.36;86.60;100635.38;5110861;27;20451;-72
2023/02/23 15:34:29;;;;;;;44.50;26.47;;;;;;;10.29;86.82;100631.81;5106547;27;20201;-75
2023/02/23 15:37:05;;;;;;;43.73;27.50;;;;;;;10.30;87.10;100630.78;5099204;27;20534;-72
2023/02/23 15:39:38;;;;;;;43.93;26.40;;;;;;;10.26;87.28;100634.94;5104262;28;20453;-73
2023/02/23 15:42:14;;;;;;;37.90;27.07;;;;;;;10.04;88.07;100629.66;5121431;27;20505;-74
2023/02/23 15:44:44;;;;;;;49.67;29.13;;;;;;;10.18;87.95;100632.41;5104509;27;20420;-74
2023/02/23 15:47:22;;;;;;;41.30;28.73;;;;;;;10.21;87.48;100634.72;5101884;27;20469;-72
2023/02/23 15:49:55;;;;;;;52.13;28.10;;;;;;;10.11;88.13;100631.56;5122277;27;20516;-72
2023/02/23 15:52:33;;;;;;;50.37;29.67;;;;;;;9.98;88.62;100630.47;5121171;27;20444;-72
2023/02/23 15:55:08;;;;;;;48.93;27.97;;;;;;;9.95;89.19;100633.59;5127978;27;20417;-72
2023/02/23 15:57:48;;;;;;;42.53;29.40;;;;;;;10.00;88.68;100625.72;5114734;27;20851;-73
2023/02/23 16:00:31;;;;;;;47.03;30.30;;;;;;;10.03;88.70;100635.25;5124667;27;20954;-72
2023/02/23 16:03:04;;;;;;;49.08;28.65;;;;;;;9.99;88.87;100634.84;5104872;28;20201;-72
2023/02/23 16:05:37;;;;;;;42.73;27.80;;;;;;;9.96;88.96;100627.16;5118801;27;20189;-72
2023/02/23 16:08:28;;;;;;;41.33;28.60;;;;;;;9.95;89.25;100627.34;5117873;28;20447;-72
2023/02/23 16:11:10;;;;;;;52.37;30.07;;;;;;;9.86;89.77;100629.41;5114070;27;20438;-73
2023/02/23 16:13:44;;;;;;;48.60;31.00;;;;;;;9.67;90.39;100624.78;5113741;28;20493;-72
2023/02/23 16:16:24;;;;;;;53.30;33.50;;;;;;;9.71;90.49;100617.94;5103232;28;20437;-71
2023/02/23 16:19:01;;;;;;;47.53;29.30;;;;;;;9.73;90.63;100618.56;5114420;28;21069;-73
2023/02/23 16:21:33;;;;;;;51.70;31.52;;;;;;;9.65;91.02;100620.59;5129724;28;20439;-71
2023/02/23 16:24:20;;;;;;;49.43;31.87;;;;;;;9.68;91.17;100622.91;5110756;28;20497;-73